createdAt,value
2017-08-22T00:00:01.417Z,13.3
2017-08-22T00:05:01.526Z,13.2
2017-08-22T00:10:01.238Z,13.2
2017-08-22T00:15:02.156Z,13.2
2017-08-22T00:20:01.960Z,13
2017-08-22T00:25:01.369Z,12.9
2017-08-22T00:30:01.226Z,12.9
2017-08-22T00:35:01.463Z,12.8
2017-08-22T00:40:01.206Z,12.8
2017-08-22T00:45:01.621Z,12.7
2017-08-22T00:50:01.318Z,12.6
2017-08-22T00:55:01.199Z,12.6
2017-08-22T01:00:01.950Z,12.6
2017-08-22T01:05:01.365Z,12.5
2017-08-22T01:10:01.188Z,12.5
2017-08-22T01:15:01.440Z,12.5
2017-08-22T01:20:01.223Z,12.4
2017-08-22T01:25:01.947Z,12.4
2017-08-22T01:30:01.743Z,12.3
2017-08-22T01:35:01.201Z,12.3
2017-08-22T01:40:01.959Z,12.3
2017-08-22T01:45:01.922Z,12.2
2017-08-22T01:50:01.707Z,12.2
2017-08-22T01:55:01.603Z,12.1
2017-08-22T02:00:01.491Z,12.1
2017-08-22T02:05:01.835Z,12.1
2017-08-22T02:10:01.563Z,12.1
2017-08-22T02:15:01.635Z,12
2017-08-22T02:20:01.380Z,12
2017-08-22T02:25:01.401Z,12
2017-08-22T02:30:02.037Z,12
2017-08-22T02:35:01.698Z,12
2017-08-22T02:40:01.400Z,12
2017-08-22T02:45:01.361Z,11.9
2017-08-22T02:50:01.307Z,11.8
2017-08-22T02:55:01.285Z,11.8
2017-08-22T03:00:01.277Z,11.8
2017-08-22T03:05:01.627Z,11.8
2017-08-22T03:10:01.383Z,11.8
2017-08-22T03:15:01.908Z,11.8
2017-08-22T03:20:01.551Z,11.8
2017-08-22T03:25:01.614Z,11.8
2017-08-22T03:30:01.680Z,11.8
2017-08-22T03:35:01.994Z,11.9
2017-08-22T03:40:01.999Z,12
2017-08-22T03:45:01.788Z,12
2017-08-22T03:50:01.833Z,12
2017-08-22T03:55:01.693Z,12.1
2017-08-22T04:00:01.798Z,12.1
2017-08-22T04:05:01.851Z,12.1
2017-08-22T04:10:01.711Z,12.1
2017-08-22T04:15:01.297Z,12.2
2017-08-22T04:20:02.070Z,12.2
2017-08-22T04:25:01.575Z,12.3
2017-08-22T04:30:02.007Z,12.3
2017-08-22T04:35:01.970Z,12.3
2017-08-22T04:40:01.646Z,12.4
2017-08-22T04:45:01.777Z,12.4
2017-08-22T04:50:01.741Z,12.4
2017-08-22T04:55:01.942Z,12.4
2017-08-22T05:00:01.957Z,12.4
2017-08-22T05:05:01.881Z,12.4
2017-08-22T05:10:01.672Z,12.4
2017-08-22T05:15:02.041Z,12.5
2017-08-22T05:20:02.064Z,12.6
2017-08-22T05:25:02.165Z,12.6
2017-08-22T05:30:02.115Z,12.6
2017-08-22T05:35:01.760Z,12.6
2017-08-22T05:40:01.608Z,12.6
2017-08-22T05:45:01.345Z,12.8
2017-08-22T05:50:01.332Z,13
2017-08-22T05:55:01.799Z,13
2017-08-22T06:00:01.904Z,13
2017-08-22T06:05:01.378Z,13.3
2017-08-22T06:10:01.813Z,13.3
2017-08-22T06:15:01.346Z,13.3
2017-08-22T06:20:01.232Z,13.3
2017-08-22T06:25:01.745Z,13.7
2017-08-22T06:30:01.796Z,13.7
2017-08-22T06:35:01.201Z,13.9
2017-08-22T06:40:02.050Z,14
2017-08-22T06:45:02.163Z,14
2017-08-22T06:50:02.022Z,14.1
2017-08-22T06:55:01.211Z,14.1
2017-08-22T07:00:01.224Z,14.1
2017-08-22T07:05:01.286Z,14.1
2017-08-22T07:10:01.217Z,14.6
2017-08-22T07:15:02.087Z,15
2017-08-22T07:20:01.778Z,15
2017-08-22T07:25:01.345Z,15
2017-08-22T07:30:01.324Z,15
2017-08-22T07:35:01.459Z,15
2017-08-22T07:40:01.249Z,15
2017-08-22T07:45:02.034Z,15
2017-08-22T07:50:02.027Z,15
2017-08-22T07:55:01.223Z,15
2017-08-22T08:00:01.291Z,15.7
2017-08-22T08:05:01.278Z,15.7
2017-08-22T08:10:02.171Z,15.7
2017-08-22T08:15:02.062Z,16
2017-08-22T08:20:01.801Z,16
2017-08-22T08:25:01.982Z,16
2017-08-22T08:30:02.010Z,16
2017-08-22T08:35:01.233Z,16.4
2017-08-22T08:40:01.940Z,16.4
2017-08-22T08:45:01.681Z,16.4
2017-08-22T08:50:01.718Z,16.4
2017-08-22T08:55:02.017Z,16.4
2017-08-22T09:00:01.576Z,16.8
2017-08-22T09:05:01.452Z,16.8
2017-08-22T09:10:01.392Z,16.8
2017-08-22T09:15:01.925Z,16.8
2017-08-22T09:20:01.588Z,16.8
2017-08-22T09:25:01.787Z,17.2
2017-08-22T09:30:02.039Z,17.2
2017-08-22T09:35:01.941Z,17.2
2017-08-22T09:40:01.638Z,17.2
2017-08-22T09:45:01.851Z,17.2
2017-08-22T09:50:01.777Z,17.2
2017-08-22T09:55:01.688Z,17.9
2017-08-22T10:00:02.102Z,17.9
2017-08-22T10:05:01.158Z,18
2017-08-22T10:10:01.994Z,18
2017-08-22T10:15:01.364Z,18
2017-08-22T10:20:01.201Z,18
2017-08-22T10:25:01.934Z,18.3
2017-08-22T10:30:01.437Z,18.3
2017-08-22T10:35:01.787Z,18.3
2017-08-22T10:40:01.738Z,18.3
2017-08-22T10:45:01.237Z,18.4
2017-08-22T10:50:01.210Z,18.5
2017-08-22T10:55:02.074Z,18.5
2017-08-22T11:00:01.344Z,18.5
2017-08-22T11:05:01.331Z,18.5
2017-08-22T11:10:01.404Z,18.5
2017-08-22T11:15:01.882Z,18.5
2017-08-22T11:20:01.715Z,18.4
2017-08-22T11:25:01.768Z,18.4
2017-08-22T11:30:02.159Z,18.4
2017-08-22T11:35:01.454Z,18.2
2017-08-22T11:40:01.218Z,18.2
2017-08-22T11:45:01.524Z,18.2
2017-08-22T11:50:01.545Z,18.2
2017-08-22T11:55:02.413Z,18.2
2017-08-22T12:00:01.676Z,18.2
2017-08-22T12:05:01.678Z,18.2
2017-08-22T12:10:01.664Z,18.2
2017-08-22T12:15:01.654Z,18.2
2017-08-22T12:20:01.357Z,18.2
2017-08-22T12:25:01.886Z,18.2
2017-08-22T12:30:01.165Z,18.2
2017-08-22T12:35:01.775Z,18.2
2017-08-22T12:40:01.547Z,18.2
2017-08-22T12:45:01.742Z,18.2
2017-08-22T12:50:01.590Z,18.7
2017-08-22T12:55:01.213Z,18.8
2017-08-22T13:00:01.728Z,18.8
2017-08-22T13:05:01.566Z,18.8
2017-08-22T13:10:02.331Z,18.7
2017-08-22T13:15:01.910Z,18.6
2017-08-22T13:20:02.069Z,18.5
2017-08-22T13:25:01.607Z,18.5
2017-08-22T13:30:01.439Z,18.6
2017-08-22T13:35:02.246Z,18.7
2017-08-22T13:40:01.889Z,18.8
2017-08-22T13:45:01.515Z,18.8
2017-08-22T13:50:02.139Z,18.8
2017-08-22T13:55:02.027Z,18.8
2017-08-22T14:00:01.515Z,18.8
2017-08-22T14:05:01.616Z,18.8
2017-08-22T14:10:01.430Z,18.8
2017-08-22T14:15:01.486Z,18.8
2017-08-22T14:20:02.161Z,18.7
2017-08-22T14:25:02.046Z,18.7
2017-08-22T14:30:02.130Z,18.7
2017-08-22T14:35:01.619Z,18.5
2017-08-22T14:40:01.357Z,18.4
2017-08-22T14:45:01.708Z,18.4
2017-08-22T14:50:01.886Z,18.3
2017-08-22T14:55:01.726Z,18.2
2017-08-22T15:00:01.810Z,18.3
2017-08-22T15:05:01.388Z,18.3
2017-08-22T15:10:01.590Z,18.3
2017-08-22T15:15:01.561Z,18.3
2017-08-22T15:20:01.284Z,18.4
2017-08-22T15:25:01.900Z,18.5
2017-08-22T15:30:02.037Z,18.5
2017-08-22T15:35:01.711Z,18.5
2017-08-22T15:40:01.451Z,18.4
2017-08-22T15:45:01.571Z,18.4
2017-08-22T15:50:01.502Z,18.4
2017-08-22T15:55:01.384Z,18.3
2017-08-22T16:00:01.539Z,18.3
2017-08-22T16:05:01.414Z,18.2
2017-08-22T16:10:01.281Z,18.2
2017-08-22T16:15:01.470Z,18.2
2017-08-22T16:20:01.195Z,18
2017-08-22T16:25:01.668Z,18
2017-08-22T16:30:01.766Z,17.9
2017-08-22T16:35:01.873Z,17.9
2017-08-22T16:40:01.642Z,17.9
2017-08-22T16:45:01.430Z,17.9
2017-08-22T16:50:01.380Z,17.9
2017-08-22T16:55:01.371Z,17.5
2017-08-22T17:00:01.610Z,17.5
2017-08-22T17:05:01.648Z,17.5
2017-08-22T17:10:01.568Z,17.5
2017-08-22T17:15:02.171Z,17.4
2017-08-22T17:20:01.477Z,17.4
2017-08-22T17:25:02.053Z,17.4
2017-08-22T17:30:01.994Z,17.4
2017-08-22T17:35:02.101Z,17.4
2017-08-22T17:40:01.596Z,17.4
2017-08-22T17:45:01.642Z,17.4
2017-08-22T17:50:02.143Z,17.2
2017-08-22T17:55:01.346Z,17.2
2017-08-22T18:00:01.764Z,17
2017-08-22T18:05:01.405Z,16.8
2017-08-22T18:10:02.003Z,16.8
2017-08-22T18:15:01.353Z,16.8
2017-08-22T18:20:01.851Z,16.8
2017-08-22T18:25:01.904Z,16.8
2017-08-22T18:30:01.422Z,16.7
2017-08-22T18:35:01.775Z,16.4
2017-08-22T18:40:01.925Z,16.4
2017-08-22T18:45:01.570Z,16.3
2017-08-22T18:50:02.244Z,16.2
2017-08-22T18:55:03.026Z,16.1
2017-08-22T19:00:01.317Z,16
2017-08-22T19:05:01.882Z,16
2017-08-22T19:10:02.423Z,15.8
2017-08-22T19:15:01.196Z,15.8
2017-08-22T19:20:01.373Z,15.8
2017-08-22T19:25:01.352Z,15.6
2017-08-22T19:30:01.723Z,15.4
2017-08-22T19:35:01.801Z,15.4
2017-08-22T19:40:01.869Z,15.2
2017-08-22T19:45:01.679Z,15.1
2017-08-22T19:50:01.774Z,15
2017-08-22T19:55:01.998Z,15
2017-08-22T20:00:01.918Z,15
2017-08-22T20:05:01.973Z,15
2017-08-22T20:10:01.759Z,15
2017-08-22T20:15:01.236Z,15
2017-08-22T20:20:02.061Z,15
2017-08-22T20:25:01.694Z,15
2017-08-22T20:30:01.330Z,15
2017-08-22T20:35:01.308Z,15
2017-08-22T20:40:02.368Z,15
2017-08-22T20:45:01.690Z,14.5
2017-08-22T20:50:02.151Z,14.4
2017-08-22T20:55:02.012Z,14.3
2017-08-22T21:00:02.050Z,14.3
2017-08-22T21:05:02.139Z,14.1
2017-08-22T21:10:01.495Z,14.1
2017-08-22T21:15:02.158Z,13.9
2017-08-22T21:20:02.125Z,13.9
2017-08-22T21:25:01.856Z,13.8
2017-08-22T21:30:01.433Z,13.8
2017-08-22T21:35:01.498Z,13.8
2017-08-22T21:40:01.720Z,13.7
2017-08-22T21:45:01.928Z,13.7
2017-08-22T21:50:01.549Z,13.7
2017-08-22T21:55:02.737Z,13.6
2017-08-22T22:00:01.167Z,13.6
2017-08-22T22:05:01.667Z,13.6
2017-08-22T22:10:01.615Z,13.6
2017-08-22T22:15:02.136Z,13.5
2017-08-22T22:20:02.126Z,13.5
2017-08-22T22:25:02.064Z,13.4
2017-08-22T22:30:01.871Z,13.3
2017-08-22T22:35:01.669Z,13.3
2017-08-22T22:40:01.449Z,13.2
2017-08-22T22:45:01.881Z,13.2
2017-08-22T22:50:01.962Z,13.2
2017-08-22T22:55:01.635Z,13.2
2017-08-22T23:00:01.887Z,13.2
2017-08-22T23:05:01.477Z,13.2
2017-08-22T23:10:01.533Z,13.2
2017-08-22T23:15:02.059Z,13
2017-08-22T23:20:02.062Z,13
2017-08-22T23:25:02.078Z,12.9
2017-08-22T23:30:02.657Z,12.8
2017-08-22T23:35:01.392Z,12.8
2017-08-22T23:40:02.160Z,12.8
2017-08-22T23:45:02.125Z,12.8
2017-08-22T23:50:01.932Z,12.8
2017-08-22T23:55:01.775Z,12.6
